createdAt,value
2022-09-01T00:00:17.147Z,0
2022-09-01T00:01:17.149Z,0
2022-09-01T00:02:17.319Z,0
2022-09-01T00:03:17.132Z,0
2022-09-01T00:04:17.561Z,0
2022-09-01T00:05:20.133Z,0
2022-09-01T00:06:17.163Z,0
2022-09-01T00:07:17.198Z,0
2022-09-01T00:08:22.886Z,0
2022-09-01T00:09:16.972Z,0
2022-09-01T00:10:20.230Z,0
2022-09-01T00:11:17.163Z,0
2022-09-01T00:12:17.137Z,0
2022-09-01T00:13:17.148Z,0
2022-09-01T00:14:41.515Z,0
2022-09-01T00:15:17.291Z,0
2022-09-01T00:16:20.580Z,0
2022-09-01T00:17:17.158Z,0
2022-09-01T00:18:17.162Z,0
2022-09-01T00:19:18.480Z,0
2022-09-01T00:20:23.112Z,0
2022-09-01T00:21:20.257Z,0
2022-09-01T00:22:17.161Z,0
2022-09-01T00:23:17.171Z,0
2022-09-01T00:24:17.165Z,0
2022-09-01T00:25:17.170Z,0
2022-09-01T00:26:17.184Z,0
2022-09-01T00:27:20.362Z,0
2022-09-01T00:28:17.261Z,0
2022-09-01T00:29:17.175Z,0
2022-09-01T00:30:17.204Z,0
2022-09-01T00:31:17.633Z,0
2022-09-01T00:32:20.318Z,0
2022-09-01T00:33:19.203Z,0
2022-09-01T00:34:17.182Z,0
2022-09-01T00:35:17.182Z,0
2022-09-01T00:36:17.213Z,0
2022-09-01T00:37:17.175Z,0
2022-09-01T00:38:20.304Z,0
2022-09-01T00:39:17.342Z,0
2022-09-01T00:40:17.452Z,0
2022-09-01T00:41:17.215Z,0
2022-09-01T00:42:17.210Z,0
2022-09-01T00:43:19.984Z,0
2022-09-01T00:44:17.196Z,0
2022-09-01T00:45:17.210Z,0
2022-09-01T00:46:24.919Z,0
2022-09-01T00:47:17.490Z,0
2022-09-01T00:48:18.730Z,0
2022-09-01T00:49:17.210Z,0
2022-09-01T00:50:17.224Z,0
2022-09-01T00:51:17.219Z,0
2022-09-01T00:52:17.229Z,0
2022-09-01T00:53:18.847Z,0
2022-09-01T00:54:19.834Z,0
2022-09-01T00:55:17.283Z,0
2022-09-01T00:56:17.219Z,0
2022-09-01T00:57:17.287Z,0
2022-09-01T00:58:26.820Z,0
2022-09-01T00:59:17.227Z,0
2022-09-01T01:00:17.248Z,0
2022-09-01T01:01:17.463Z,0
2022-09-01T01:02:17.536Z,0
2022-09-01T01:03:17.250Z,0
2022-09-01T01:04:17.280Z,0
2022-09-01T01:05:20.986Z,0
2022-09-01T01:06:17.268Z,0
2022-09-01T01:07:17.259Z,0
2022-09-01T01:08:17.362Z,0
2022-09-01T01:09:17.244Z,0
2022-09-01T01:10:17.236Z,0
2022-09-01T01:11:18.152Z,0
2022-09-01T01:12:17.264Z,0
2022-09-01T01:13:17.255Z,0
2022-09-01T01:14:17.251Z,0
2022-09-01T01:15:17.250Z,0
2022-09-01T01:16:17.382Z,0
2022-09-01T01:17:17.282Z,0
2022-09-01T01:18:25.361Z,0
2022-09-01T01:19:17.291Z,0
2022-09-01T01:20:17.261Z,0
2022-09-01T01:21:17.290Z,0
2022-09-01T01:22:17.285Z,0
2022-09-01T01:23:17.259Z,0
2022-09-01T01:24:17.264Z,0
2022-09-01T01:25:17.294Z,0
2022-09-01T01:26:20.191Z,0
2022-09-01T01:27:17.291Z,0
2022-09-01T01:28:17.358Z,0
2022-09-01T01:29:17.274Z,0
2022-09-01T01:30:17.283Z,0
2022-09-01T01:31:17.678Z,0
2022-09-01T01:32:17.296Z,0
2022-09-01T01:33:18.387Z,0
2022-09-01T01:34:17.298Z,0
2022-09-01T01:35:17.389Z,0
2022-09-01T01:36:17.299Z,0
2022-09-01T01:37:20.768Z,0
2022-09-01T01:38:17.389Z,0
2022-09-01T01:39:17.301Z,0
2022-09-01T01:40:17.450Z,0
2022-09-01T01:41:17.312Z,0
2022-09-01T01:42:17.318Z,0
2022-09-01T01:43:17.320Z,0
2022-09-01T01:44:17.311Z,0
2022-09-01T01:45:17.381Z,0
2022-09-01T01:46:17.892Z,0
2022-09-01T01:47:17.333Z,0
2022-09-01T01:48:20.270Z,0
2022-09-01T01:49:17.313Z,0
2022-09-01T01:50:17.519Z,0
2022-09-01T01:51:17.337Z,0
2022-09-01T01:52:17.343Z,0
2022-09-01T01:53:18.440Z,0
2022-09-01T01:54:17.326Z,0
2022-09-01T01:55:17.331Z,0
2022-09-01T01:56:17.328Z,0
2022-09-01T01:57:17.347Z,0
2022-09-01T01:58:17.377Z,0
2022-09-01T01:59:20.532Z,0
2022-09-01T02:00:17.327Z,0
2022-09-01T02:01:17.740Z,0
2022-09-01T02:02:17.729Z,0
2022-09-01T02:03:17.389Z,0
2022-09-01T02:04:20.424Z,0
2022-09-01T02:05:17.414Z,0
2022-09-01T02:06:17.356Z,0
2022-09-01T02:07:17.365Z,0
2022-09-01T02:08:17.597Z,0
2022-09-01T02:09:17.348Z,0
2022-09-01T02:10:20.409Z,0
2022-09-01T02:11:17.372Z,0
2022-09-01T02:12:20.494Z,0
2022-09-01T02:13:17.387Z,0
2022-09-01T02:14:17.350Z,0
2022-09-01T02:15:20.166Z,0
2022-09-01T02:16:17.939Z,0
2022-09-01T02:17:17.499Z,0
2022-09-01T02:18:17.593Z,0
2022-09-01T02:19:19.256Z,0
2022-09-01T02:20:17.373Z,0
2022-09-01T02:21:23.833Z,0
2022-09-01T02:22:17.386Z,0
2022-09-01T02:23:17.571Z,0
2022-09-01T02:24:17.369Z,0
2022-09-01T02:25:17.375Z,0
2022-09-01T02:26:23.810Z,0
2022-09-01T02:27:17.643Z,0
2022-09-01T02:28:18.902Z,0
2022-09-01T02:29:17.394Z,0
2022-09-01T02:30:17.404Z,0
2022-09-01T02:31:17.861Z,0
2022-09-01T02:32:20.259Z,0
2022-09-01T02:33:18.708Z,0
2022-09-01T02:34:17.400Z,0
2022-09-01T02:35:17.390Z,0
2022-09-01T02:36:17.412Z,0
2022-09-01T02:37:20.244Z,0
2022-09-01T02:38:17.463Z,0
2022-09-01T02:39:18.883Z,0
2022-09-01T02:40:17.718Z,0
2022-09-01T02:41:17.407Z,0
2022-09-01T02:42:17.422Z,0
2022-09-01T02:43:20.268Z,0
2022-09-01T02:44:17.427Z,0
2022-09-01T02:45:17.414Z,0
2022-09-01T02:46:17.744Z,0
2022-09-01T02:47:17.593Z,0
2022-09-01T02:48:23.236Z,0
2022-09-01T02:49:17.437Z,0
2022-09-01T02:50:17.459Z,0
2022-09-01T02:51:17.417Z,0
2022-09-01T02:52:17.419Z,0
2022-09-01T02:53:17.423Z,0
2022-09-01T02:54:20.434Z,0
2022-09-01T02:55:17.543Z,0
2022-09-01T02:56:17.424Z,0
2022-09-01T02:57:17.424Z,0
2022-09-01T02:58:20.220Z,0
2022-09-01T02:59:20.434Z,0
2022-09-01T03:00:17.439Z,0
2022-09-01T03:01:17.754Z,0
2022-09-01T03:02:17.445Z,0
2022-09-01T03:03:17.449Z,0
2022-09-01T03:04:17.503Z,0
2022-09-01T03:05:20.769Z,0
2022-09-01T03:06:17.449Z,0
2022-09-01T03:07:17.473Z,0
2022-09-01T03:08:17.495Z,0
2022-09-01T03:09:18.319Z,0
2022-09-01T03:10:20.211Z,0
2022-09-01T03:11:20.134Z,0
2022-09-01T03:12:17.459Z,0
2022-09-01T03:13:17.464Z,0
2022-09-01T03:14:17.478Z,0
2022-09-01T03:15:20.064Z,0
2022-09-01T03:16:17.772Z,0
2022-09-01T03:17:18.494Z,0
2022-09-01T03:18:17.486Z,0
2022-09-01T03:19:17.501Z,0
2022-09-01T03:20:17.477Z,0
2022-09-01T03:21:20.293Z,0
2022-09-01T03:22:17.496Z,0
2022-09-01T03:23:21.533Z,0
2022-09-01T03:24:17.568Z,0
2022-09-01T03:25:17.482Z,0
2022-09-01T03:26:17.502Z,0
2022-09-01T03:27:17.496Z,0
2022-09-01T03:28:17.574Z,0
2022-09-01T03:29:17.516Z,0
2022-09-01T03:30:19.805Z,0
2022-09-01T03:31:17.578Z,0
2022-09-01T03:32:17.771Z,0
2022-09-01T03:33:17.517Z,0
2022-09-01T03:34:17.510Z,0
2022-09-01T03:35:17.634Z,0
2022-09-01T03:36:22.342Z,0
2022-09-01T03:37:17.554Z,0
2022-09-01T03:38:17.587Z,0
2022-09-01T03:39:23.288Z,0
2022-09-01T03:40:17.784Z,0
2022-09-01T03:41:18.049Z,0
2022-09-01T03:42:17.530Z,0
2022-09-01T03:43:17.544Z,0
2022-09-01T03:44:17.519Z,0
2022-09-01T03:45:17.514Z,0
2022-09-01T03:46:17.795Z,0
2022-09-01T03:47:17.608Z,0
2022-09-01T03:48:20.900Z,0
2022-09-01T03:49:17.676Z,0
2022-09-01T03:50:17.526Z,0
2022-09-01T03:51:17.526Z,0
2022-09-01T03:52:17.532Z,0
2022-09-01T03:53:20.398Z,0
2022-09-01T03:54:17.536Z,0
2022-09-01T03:55:17.534Z,0
2022-09-01T03:56:17.580Z,0
2022-09-01T03:57:21.393Z,0
2022-09-01T03:58:17.929Z,0
2022-09-01T03:59:22.283Z,0
2022-09-01T04:00:17.533Z,0
2022-09-01T04:01:21.113Z,0
2022-09-01T04:02:17.880Z,0
2022-09-01T04:03:18.109Z,0
2022-09-01T04:04:20.391Z,0
2022-09-01T04:05:17.549Z,0
2022-09-01T04:06:17.564Z,0
2022-09-01T04:07:25.787Z,0
2022-09-01T04:08:17.689Z,0
2022-09-01T04:09:17.576Z,0
2022-09-01T04:10:17.560Z,0
2022-09-01T04:11:17.554Z,0
2022-09-01T04:12:17.563Z,0
2022-09-01T04:13:20.750Z,0
2022-09-01T04:14:17.575Z,4
2022-09-01T04:15:20.339Z,0
2022-09-01T04:16:17.976Z,0
2022-09-01T04:17:17.574Z,0
2022-09-01T04:18:17.603Z,4
2022-09-01T04:19:17.570Z,0
2022-09-01T04:20:23.145Z,0
2022-09-01T04:21:17.573Z,4
2022-09-01T04:22:17.601Z,0
2022-09-01T04:23:17.595Z,4
2022-09-01T04:24:17.667Z,4
2022-09-01T04:25:17.599Z,4
2022-09-01T04:26:20.371Z,8
2022-09-01T04:27:17.586Z,4
2022-09-01T04:28:17.797Z,4
2022-09-01T04:29:17.592Z,8
2022-09-01T04:30:17.595Z,8
2022-09-01T04:31:17.915Z,8
2022-09-01T04:32:18.410Z,12
2022-09-01T04:33:17.617Z,12
2022-09-01T04:34:17.612Z,12
2022-09-01T04:35:17.604Z,12
2022-09-01T04:36:17.594Z,12
2022-09-01T04:37:20.634Z,16
2022-09-01T04:38:17.742Z,20
2022-09-01T04:39:18.751Z,16
2022-09-01T04:40:17.949Z,20
2022-09-01T04:41:17.622Z,20
2022-09-01T04:42:20.695Z,24
2022-09-01T04:43:17.669Z,24
2022-09-01T04:44:17.614Z,28
2022-09-01T04:45:24.482Z,32
2022-09-01T04:46:17.970Z,32
2022-09-01T04:47:17.803Z,32
2022-09-01T04:48:21.204Z,36
2022-09-01T04:49:19.999Z,40
2022-09-01T04:50:18.088Z,40
2022-09-01T04:51:17.637Z,44
2022-09-01T04:52:19.927Z,48
2022-09-01T04:53:19.555Z,48
2022-09-01T04:54:17.637Z,52
2022-09-01T04:55:18.047Z,52
2022-09-01T04:56:17.806Z,56
2022-09-01T04:57:17.667Z,60
2022-09-01T04:58:17.688Z,60
2022-09-01T04:59:21.935Z,64
2022-09-01T05:00:17.650Z,68
2022-09-01T05:01:17.996Z,68
2022-09-01T05:02:17.941Z,72
2022-09-01T05:03:17.664Z,80
2022-09-01T05:04:23.457Z,80
2022-09-01T05:05:17.650Z,84
2022-09-01T05:06:17.665Z,84
2022-09-01T05:07:17.666Z,92
2022-09-01T05:08:27.318Z,96
2022-09-01T05:09:17.662Z,96
2022-09-01T05:10:20.516Z,100
2022-09-01T05:11:17.679Z,104
2022-09-01T05:12:20.607Z,108
2022-09-01T05:13:17.698Z,108
2022-09-01T05:14:17.659Z,112
2022-09-01T05:15:20.441Z,120
2022-09-01T05:16:21.478Z,120
2022-09-01T05:17:17.710Z,124
2022-09-01T05:18:17.720Z,132
2022-09-01T05:19:17.680Z,132
2022-09-01T05:20:17.705Z,136
2022-09-01T05:21:20.825Z,140
2022-09-01T05:22:17.738Z,140
2022-09-01T05:23:17.704Z,144
2022-09-01T05:24:17.732Z,148
2022-09-01T05:25:17.752Z,152
2022-09-01T05:26:18.386Z,156
2022-09-01T05:27:18.344Z,164
2022-09-01T05:28:17.908Z,168
2022-09-01T05:29:17.807Z,176
2022-09-01T05:30:17.696Z,180
2022-09-01T05:31:17.985Z,184
2022-09-01T05:32:20.744Z,192
2022-09-01T05:33:23.372Z,196
2022-09-01T05:34:20.752Z,200
2022-09-01T05:35:17.705Z,204
2022-09-01T05:36:17.712Z,208
2022-09-01T05:37:20.728Z,212
2022-09-01T05:38:17.864Z,216
2022-09-01T05:39:17.729Z,216
2022-09-01T05:40:19.585Z,224
2022-09-01T05:41:17.719Z,232
2022-09-01T05:42:17.723Z,232
2022-09-01T05:43:17.741Z,236
2022-09-01T05:44:17.721Z,232
2022-09-01T05:45:17.717Z,236
2022-09-01T05:46:17.812Z,240
2022-09-01T05:47:27.288Z,240
2022-09-01T05:48:19.402Z,236
2022-09-01T05:49:17.742Z,232
2022-09-01T05:50:21.381Z,236
2022-09-01T05:51:54.758Z,236
2022-09-01T05:53:22.331Z,228
2022-09-01T05:54:17.737Z,236
2022-09-01T05:55:18.382Z,240
2022-09-01T05:56:17.738Z,248
2022-09-01T05:57:40.012Z,268
2022-09-01T05:58:17.771Z,288
2022-09-01T05:59:33.568Z,440
2022-09-01T06:00:18.124Z,416
2022-09-01T06:01:17.775Z,424
2022-09-01T06:02:18.213Z,404
2022-09-01T06:03:18.774Z,360
2022-09-01T06:04:17.765Z,336
2022-09-01T06:05:17.861Z,344
2022-09-01T06:06:17.767Z,336
2022-09-01T06:07:27.724Z,340
2022-09-01T06:08:18.742Z,340
2022-09-01T06:09:17.775Z,344
2022-09-01T06:10:20.498Z,340
2022-09-01T06:11:17.778Z,336
2022-09-01T06:12:18.577Z,340
2022-09-01T06:13:17.822Z,352
2022-09-01T06:14:17.773Z,376
2022-09-01T06:15:21.843Z,472
2022-09-01T06:16:18.051Z,632
2022-09-01T06:17:17.790Z,820
2022-09-01T06:18:17.793Z,888
2022-09-01T06:19:17.788Z,892
2022-09-01T06:20:20.731Z,780
2022-09-01T06:21:17.840Z,524
2022-09-01T06:22:17.801Z,464
2022-09-01T06:23:17.843Z,428
2022-09-01T06:24:17.802Z,404
2022-09-01T06:25:17.837Z,396
2022-09-01T06:26:17.802Z,400
2022-09-01T06:27:17.796Z,420
2022-09-01T06:28:17.805Z,432
2022-09-01T06:29:18.033Z,432
2022-09-01T06:30:22.684Z,444
2022-09-01T06:31:21.042Z,480
2022-09-01T06:32:17.800Z,508
2022-09-01T06:33:17.807Z,476
2022-09-01T06:34:17.845Z,492
2022-09-01T06:35:17.802Z,560
2022-09-01T06:36:17.819Z,684
2022-09-01T06:37:17.844Z,724
2022-09-01T06:38:17.821Z,960
2022-09-01T06:39:17.834Z,1132
2022-09-01T06:40:18.197Z,1176
2022-09-01T06:41:17.826Z,1192
2022-09-01T06:42:20.973Z,1224
2022-09-01T06:43:18.005Z,1272
2022-09-01T06:44:21.342Z,1264
2022-09-01T06:45:17.827Z,1092
2022-09-01T06:46:18.090Z,1276
2022-09-01T06:47:18.024Z,1316
2022-09-01T06:48:17.847Z,1340
2022-09-01T06:49:17.852Z,1352
2022-09-01T07:43:12.408Z,1860
2022-09-01T07:44:12.346Z,2528
2022-09-01T07:47:52.273Z,1984
2022-09-01T07:48:03.201Z,2468
2022-09-01T07:51:34.954Z,1140
2022-09-01T07:51:45.884Z,1344
2022-09-01T07:52:45.301Z,2300
2022-09-01T07:53:45.493Z,2684
2022-09-01T07:54:45.456Z,3368
2022-09-01T07:55:48.733Z,1532
2022-09-01T07:56:47.272Z,2432
2022-09-01T07:57:45.472Z,1576
2022-09-01T07:58:45.467Z,1964
2022-09-01T07:59:45.473Z,1536
2022-09-01T08:00:48.611Z,1128
2022-09-01T08:01:47.551Z,1064
2022-09-01T08:02:45.658Z,1460
2022-09-01T08:03:45.496Z,1664
2022-09-01T08:04:45.476Z,3092
2022-09-01T08:05:45.519Z,2696
2022-09-01T08:06:48.872Z,2508
2022-09-01T08:08:01.566Z,2768
2022-09-01T08:08:45.480Z,2852
2022-09-01T08:09:55.904Z,2728
2022-09-01T08:10:45.816Z,2720
2022-09-01T08:12:18.522Z,2664
2022-09-01T08:12:46.005Z,2632
2022-09-01T08:13:54.693Z,2552
2022-09-01T08:16:20.470Z,2500
2022-09-01T08:16:59.703Z,2448
2022-09-01T08:18:01.272Z,2392
2022-09-01T08:19:04.248Z,2372
2022-09-01T08:19:46.302Z,2320
2022-09-01T08:20:45.790Z,2280
2022-09-01T08:21:45.506Z,2248
2022-09-01T08:22:48.526Z,2228
2022-09-01T08:23:46.564Z,2092
2022-09-01T08:24:45.521Z,2092
2022-09-01T08:25:45.530Z,2124
2022-09-01T08:26:45.516Z,2040
2022-09-01T08:27:45.539Z,1980
2022-09-01T08:28:57.433Z,1980
2022-09-01T08:29:45.524Z,1940
2022-09-01T08:30:54.879Z,1904
2022-09-01T08:31:45.818Z,1900
2022-09-01T08:32:45.537Z,1828
2022-09-01T08:33:48.413Z,1600
2022-09-01T08:34:45.528Z,1464
2022-09-01T08:35:45.772Z,1496
2022-09-01T08:36:45.560Z,1736
2022-09-01T08:37:45.552Z,1760
2022-09-01T08:38:45.931Z,1748
2022-09-01T08:39:48.643Z,1740
2022-09-01T08:40:45.926Z,1732
2022-09-01T08:41:51.913Z,1720
2022-09-01T08:42:45.558Z,1708
2022-09-01T08:43:47.212Z,1716
2022-09-01T08:44:48.392Z,1724
2022-09-01T08:45:45.568Z,1720
2022-09-01T08:46:45.870Z,1708
2022-09-01T08:49:30.971Z,1696
2022-09-01T08:49:51.459Z,1692
2022-09-01T08:50:56.415Z,1692
2022-09-01T08:51:50.301Z,1700
2022-09-01T08:52:52.964Z,1692
2022-09-01T08:53:50.290Z,1680
2022-09-01T08:54:51.980Z,1692
2022-09-01T08:55:51.729Z,1692
2022-09-01T08:56:50.309Z,1664
2022-09-01T08:57:50.304Z,1644
2022-09-01T08:58:51.088Z,1684
2022-09-01T08:59:50.307Z,1692
2022-09-01T09:00:58.030Z,1692
2022-09-01T09:01:54.713Z,1684
2022-09-01T09:02:50.633Z,1700
2022-09-01T09:03:50.315Z,1668
2022-09-01T09:04:50.317Z,1632
2022-09-01T09:05:50.311Z,1660
2022-09-01T09:06:50.698Z,1680
2022-09-01T09:07:50.310Z,1656
2022-09-01T09:08:50.327Z,1564
2022-09-01T09:09:58.597Z,1364
2022-09-01T09:10:50.358Z,1428
2022-09-01T09:11:51.017Z,1396
2022-09-01T09:12:57.449Z,1244
2022-09-01T09:13:50.332Z,1548
2022-09-01T09:14:50.336Z,800
2022-09-01T09:15:50.622Z,812
2022-09-01T09:16:56.252Z,1516
2022-09-01T09:18:02.028Z,1604
2022-09-01T09:19:01.714Z,1540
2022-09-01T09:19:50.845Z,1596
2022-09-01T09:20:50.360Z,1344
2022-09-01T09:21:50.351Z,1232
2022-09-01T09:22:50.358Z,1544
2022-09-01T09:23:50.656Z,1096
2022-09-01T09:24:50.512Z,1108
2022-09-01T09:25:51.072Z,1144
2022-09-01T09:26:51.649Z,1548
2022-09-01T09:28:00.394Z,792
2022-09-01T09:28:53.443Z,856
2022-09-01T09:29:52.332Z,1264
2022-09-01T09:30:51.030Z,988
2022-09-01T09:31:53.046Z,996
2022-09-01T09:33:56.100Z,1292
2022-09-01T09:34:06.727Z,1288
2022-09-01T09:35:09.192Z,1276
2022-09-01T09:36:06.608Z,1388
2022-09-01T09:37:06.138Z,1012
2022-09-01T09:38:06.167Z,804
2022-09-01T09:39:08.143Z,1080
2022-09-01T09:40:06.953Z,1280
2022-09-01T09:41:31.755Z,1704
2022-09-01T09:42:08.555Z,1368
2022-09-01T09:43:08.405Z,1892
2022-09-01T09:44:06.272Z,1732
2022-09-01T09:45:06.167Z,1700
2022-09-01T09:46:28.285Z,1608
2022-09-01T09:47:33.664Z,1516
2022-09-01T09:48:06.173Z,1396
2022-09-01T09:49:06.170Z,1408
2022-09-01T09:50:07.708Z,1476
2022-09-01T09:51:12.527Z,1340
2022-09-01T09:52:09.041Z,1208
2022-09-01T09:53:06.198Z,852
2022-09-01T09:54:06.172Z,752
2022-09-01T09:55:07.261Z,732
2022-09-01T09:56:06.195Z,776
2022-09-01T09:57:09.463Z,1256
2022-09-01T09:58:06.215Z,1416
2022-09-01T09:59:06.197Z,828
2022-09-01T10:00:08.172Z,1676
2022-09-01T10:01:09.393Z,1216
2022-09-01T10:02:07.359Z,1176
2022-09-01T10:03:14.571Z,1324
2022-09-01T10:04:07.216Z,1324
2022-09-01T10:05:06.825Z,1968
2022-09-01T10:06:09.448Z,1624
2022-09-01T10:07:08.363Z,1856
2022-09-01T10:08:12.243Z,1448
2022-09-01T10:09:06.201Z,1272
2022-09-01T10:10:06.522Z,1284
2022-09-01T10:11:06.037Z,1636
2022-09-01T10:12:06.210Z,1332
2022-09-01T10:13:09.220Z,1544
2022-09-01T10:14:09.294Z,1808
2022-09-01T10:15:19.647Z,1764
2022-09-01T10:16:11.427Z,1948
2022-09-01T10:17:09.229Z,1816
2022-09-01T10:18:36.768Z,1404
2022-09-01T10:19:16.267Z,824
2022-09-01T10:20:06.235Z,688
2022-09-01T10:21:08.839Z,628
2022-09-01T10:22:07.999Z,608
2022-09-01T10:23:17.440Z,612
2022-09-01T10:24:30.721Z,640
2022-09-01T10:25:11.913Z,692
2022-09-01T10:26:11.884Z,700
2022-09-01T10:27:14.769Z,700
2022-09-01T10:28:06.272Z,652
2022-09-01T10:29:06.300Z,612
2022-09-01T10:30:26.445Z,584
2022-09-01T10:31:09.043Z,568
2022-09-01T10:32:56.213Z,556
2022-09-01T10:33:26.794Z,552
2022-09-01T10:34:15.205Z,548
2022-09-01T10:35:18.096Z,592
2022-09-01T10:36:18.229Z,616
2022-09-01T10:37:20.789Z,560
2022-09-01T10:38:19.939Z,568
2022-09-01T10:39:16.090Z,576
2022-09-01T10:40:19.508Z,592
2022-09-01T10:41:21.670Z,604
2022-09-01T10:42:21.926Z,612
2022-09-01T10:43:19.701Z,612
2022-09-01T10:44:15.142Z,612
2022-09-01T10:45:14.911Z,608
2022-09-01T10:46:38.491Z,608
2022-09-01T10:47:22.017Z,608
2022-09-01T10:48:30.224Z,612
2022-09-01T10:49:15.962Z,616
2022-09-01T10:50:18.272Z,616
2022-09-01T10:51:28.360Z,616
2022-09-01T10:52:37.101Z,624
2022-09-01T10:53:19.643Z,628
2022-09-01T10:54:14.936Z,636
2022-09-01T10:55:14.872Z,644
2022-09-01T10:56:42.922Z,664
2022-09-01T10:57:18.113Z,672
2022-09-01T10:59:58.613Z,724
2022-09-01T11:00:37.438Z,732
2022-09-01T11:01:50.507Z,752
2022-09-01T11:02:48.802Z,764
2022-09-01T11:03:56.285Z,768
2022-09-01T11:04:33.912Z,764
2022-09-01T11:05:38.893Z,756
2022-09-01T11:06:38.648Z,756
2022-09-01T11:08:23.196Z,756
2022-09-01T11:08:34.242Z,756
2022-09-01T11:09:33.644Z,776
2022-09-01T11:10:41.313Z,796
2022-09-01T11:11:33.308Z,808
2022-09-01T11:12:36.893Z,808
2022-09-01T11:13:33.523Z,800
2022-09-01T11:14:33.350Z,792
2022-09-01T11:15:35.414Z,792
2022-09-01T11:17:03.939Z,796
2022-09-01T11:17:33.701Z,792
2022-09-01T11:18:34.296Z,784
2022-09-01T11:19:34.265Z,780
2022-09-01T11:20:33.374Z,772
2022-09-01T11:21:36.629Z,772
2022-09-01T11:22:33.626Z,780
2022-09-01T11:23:34.510Z,792
2022-09-01T11:24:34.471Z,808
2022-09-01T11:25:43.685Z,832
2022-09-01T11:26:36.748Z,848
2022-09-01T11:27:40.466Z,832
2022-09-01T11:28:33.369Z,832
2022-09-01T11:29:33.367Z,816
2022-09-01T11:30:33.349Z,832
2022-09-01T11:31:33.936Z,820
2022-09-01T11:32:36.345Z,808
2022-09-01T11:33:33.393Z,812
2022-09-01T11:34:33.361Z,820
2022-09-01T11:35:33.658Z,820
2022-09-01T11:36:33.465Z,816
2022-09-01T11:37:36.898Z,804
2022-09-01T11:38:33.406Z,816
2022-09-01T11:39:33.709Z,816
2022-09-01T11:40:39.600Z,840
2022-09-01T11:41:33.377Z,844
2022-09-01T11:42:33.969Z,816
2022-09-01T11:43:37.012Z,808
2022-09-01T11:44:33.367Z,764
2022-09-01T11:45:34.160Z,760
2022-09-01T11:46:33.662Z,752
2022-09-01T11:47:33.398Z,768
2022-09-01T11:48:34.865Z,852
2022-09-01T11:49:33.387Z,780
2022-09-01T11:50:33.403Z,756
2022-09-01T11:51:33.385Z,756
2022-09-01T11:52:33.400Z,752
2022-09-01T11:53:34.031Z,744
2022-09-01T11:54:36.532Z,752
2022-09-01T11:55:33.390Z,756
2022-09-01T11:56:33.391Z,776
2022-09-01T11:57:33.404Z,760
2022-09-01T11:58:33.460Z,720
2022-09-01T11:59:36.094Z,708
2022-09-01T12:00:33.403Z,708
2022-09-01T12:01:33.404Z,708
2022-09-01T12:02:36.547Z,708
2022-09-01T12:03:34.499Z,760
2022-09-01T12:04:33.404Z,720
2022-09-01T12:05:36.417Z,716
2022-09-01T12:06:33.423Z,728
2022-09-01T12:07:33.417Z,748
2022-09-01T12:08:33.423Z,748
2022-09-01T12:09:33.405Z,752
2022-09-01T12:10:36.249Z,748
2022-09-01T12:11:33.429Z,748
2022-09-01T12:12:33.426Z,752
2022-09-01T12:13:33.458Z,768
2022-09-01T12:15:08.470Z,808
2022-09-01T12:15:33.424Z,816
2022-09-01T12:16:36.462Z,804
2022-09-01T12:17:33.433Z,792
2022-09-01T12:18:33.446Z,760
2022-09-01T12:19:33.446Z,740
2022-09-01T12:20:41.886Z,716
2022-09-01T12:21:36.211Z,708
2022-09-01T12:22:33.450Z,708
2022-09-01T12:23:33.501Z,696
2022-09-01T12:24:33.445Z,684
2022-09-01T12:25:33.448Z,696
2022-09-01T12:26:33.451Z,716
2022-09-01T12:27:33.456Z,740
2022-09-01T12:28:37.734Z,744
2022-09-01T12:29:38.328Z,744
2022-09-01T12:30:33.447Z,740
2022-09-01T12:31:33.825Z,748
2022-09-01T12:32:36.308Z,768
2022-09-01T12:33:33.476Z,808
2022-09-01T12:34:33.462Z,832
2022-09-01T12:35:33.456Z,820
2022-09-01T12:36:33.549Z,804
2022-09-01T12:37:33.473Z,796
2022-09-01T12:38:33.482Z,800
2022-09-01T12:39:33.908Z,804
2022-09-01T12:40:33.708Z,808
2022-09-01T12:41:35.659Z,800
2022-09-01T12:42:47.031Z,784
2022-09-01T12:43:34.367Z,764
2022-09-01T12:44:35.134Z,744
2022-09-01T12:45:34.151Z,756
2022-09-01T12:46:33.492Z,776
2022-09-01T12:47:34.352Z,808
2022-09-01T12:48:35.996Z,912
2022-09-01T12:49:35.723Z,1556
2022-09-01T12:50:34.530Z,1660
2022-09-01T12:51:38.340Z,1308
2022-09-01T12:52:33.524Z,916
2022-09-01T12:53:39.118Z,1472
2022-09-01T12:54:33.498Z,1648
2022-09-01T12:56:03.518Z,1340
2022-09-01T12:56:33.504Z,968
2022-09-01T12:57:33.511Z,1528
2022-09-01T12:58:33.504Z,1584
2022-09-01T12:59:44.484Z,1604
2022-09-01T13:00:33.534Z,1616
2022-09-01T13:01:34.223Z,1556
2022-09-01T13:02:34.456Z,1216
2022-09-01T13:03:36.794Z,1184
2022-09-01T13:04:37.030Z,1088
2022-09-01T13:05:46.232Z,928
2022-09-01T13:06:33.566Z,1120
2022-09-01T13:07:34.760Z,1120
2022-09-01T13:08:34.985Z,860
2022-09-01T13:09:33.534Z,968
2022-09-01T13:10:37.747Z,972
2022-09-01T13:12:12.258Z,852
2022-09-01T13:13:33.548Z,812
2022-09-01T13:14:33.562Z,808
2022-09-01T13:15:36.624Z,812
2022-09-01T13:16:33.773Z,796
2022-09-01T13:17:33.550Z,764
2022-09-01T13:19:09.904Z,736
2022-09-01T13:19:37.349Z,728
2022-09-01T13:20:33.554Z,724
2022-09-01T13:21:36.914Z,764
2022-09-01T13:22:33.589Z,752
2022-09-01T13:23:33.582Z,680
2022-09-01T13:24:38.244Z,688
2022-09-01T13:25:33.928Z,676
2022-09-01T13:26:37.103Z,700
2022-09-01T13:27:33.910Z,732
2022-09-01T13:28:34.465Z,760
2022-09-01T13:29:33.597Z,696
2022-09-01T13:30:33.609Z,656
2022-09-01T13:32:16.331Z,636
2022-09-01T13:33:18.700Z,644
2022-09-01T13:34:28.192Z,836
2022-09-01T13:35:15.826Z,988
2022-09-01T13:36:54.580Z,804
2022-09-01T13:37:15.862Z,816
2022-09-01T13:38:15.835Z,888
2022-09-01T13:39:18.653Z,936
2022-09-01T13:40:16.351Z,760
2022-09-01T13:41:19.153Z,700
2022-09-01T13:42:16.319Z,756
2022-09-01T13:43:17.464Z,760
2022-09-01T13:44:17.076Z,736
2022-09-01T13:45:16.490Z,688
2022-09-01T13:46:16.052Z,664
2022-09-01T13:48:19.524Z,748
2022-09-01T13:49:41.523Z,740
2022-09-01T13:50:27.446Z,740
2022-09-01T13:51:26.096Z,788
2022-09-01T13:52:25.770Z,776
2022-09-01T13:53:28.548Z,644
2022-09-01T13:54:25.781Z,620
2022-09-01T13:55:25.794Z,904
2022-09-01T13:56:25.815Z,932
2022-09-01T13:57:25.786Z,924
2022-09-01T13:58:28.863Z,656
2022-09-01T13:59:25.788Z,816
2022-09-01T14:00:25.801Z,728
2022-09-01T14:01:26.127Z,832
2022-09-01T14:02:25.892Z,560
2022-09-01T14:03:25.790Z,1056
2022-09-01T14:04:29.019Z,1028
2022-09-01T14:05:25.811Z,1088
2022-09-01T14:06:25.800Z,1076
2022-09-01T14:07:25.820Z,1068
2022-09-01T14:08:26.064Z,1056
2022-09-01T14:09:28.951Z,972
2022-09-01T14:10:27.085Z,420
2022-09-01T14:11:25.801Z,720
2022-09-01T14:12:25.828Z,1044
2022-09-01T14:13:25.848Z,1028
2022-09-01T14:14:26.375Z,1020
2022-09-01T14:15:32.163Z,1020
2022-09-01T14:16:26.080Z,1020
2022-09-01T14:17:25.864Z,1016
2022-09-01T14:18:26.150Z,1004
2022-09-01T14:19:25.822Z,988
2022-09-01T14:20:28.637Z,988
2022-09-01T14:21:25.839Z,984
2022-09-01T14:22:25.849Z,980
2022-09-01T14:23:25.847Z,984
2022-09-01T14:24:25.833Z,992
2022-09-01T14:25:25.841Z,988
2022-09-01T14:26:33.394Z,436
2022-09-01T14:27:25.829Z,976
2022-09-01T14:28:27.998Z,964
2022-09-01T14:29:25.831Z,952
2022-09-01T14:30:31.362Z,948
2022-09-01T14:31:28.607Z,952
2022-09-01T14:32:25.835Z,968
2022-09-01T14:33:25.876Z,964
2022-09-01T14:34:29.463Z,956
2022-09-01T14:35:25.870Z,952
2022-09-01T14:36:25.846Z,916
2022-09-01T14:37:25.847Z,924
2022-09-01T14:38:26.116Z,924
2022-09-01T14:39:25.851Z,928
2022-09-01T14:40:26.180Z,960
2022-09-01T14:41:28.698Z,972
2022-09-01T14:42:28.622Z,968
2022-09-01T14:43:25.869Z,976
2022-09-01T14:44:25.866Z,984
2022-09-01T14:45:25.876Z,1016
2022-09-01T14:46:26.158Z,1020
2022-09-01T14:47:30.166Z,992
2022-09-01T14:48:26.119Z,1032
2022-09-01T14:49:29.244Z,1040
2022-09-01T14:50:29.571Z,1044
2022-09-01T14:51:26.179Z,1044
2022-09-01T14:52:25.883Z,1060
2022-09-01T14:53:29.058Z,1080
2022-09-01T14:54:25.883Z,1104
2022-09-01T14:55:25.908Z,1136
2022-09-01T14:56:27.130Z,1136
2022-09-01T14:57:44.315Z,1088
2022-09-01T14:58:25.892Z,1060
2022-09-01T14:59:25.899Z,1024
2022-09-01T15:00:26.106Z,952
2022-09-01T15:01:41.363Z,960
2022-09-01T15:02:25.916Z,800
2022-09-01T15:03:30.280Z,760